EDT,Max TemperatureF,Mean TemperatureF,Min TemperatureF,Max Dew PointF,MeanDew PointF,Min DewpointF,Max Humidity, Mean Humidity, Min Humidity, Max Sea Level PressureIn, Mean Sea Level PressureIn, Min Sea Level PressureIn, Max VisibilityMiles, Mean VisibilityMiles, Min VisibilityMiles, Max Wind SpeedMPH, Mean Wind SpeedMPH, Max Gust SpeedMPH,PrecipitationIn, CloudCover, Events, WindDirDegrees
2013-5-1,84,66,48,57,54,40,80,60,40,30.27,30.11,29.99,10,10,10,21,11,26,0.00,0,,168
2013-5-2,71,57,42,48,42,37,82,60,37,30.30,30.24,30.18,10,10,10,21,6,25,0.00,0,,113
2013-5-3,68,55,41,44,42,39,89,66,42,30.18,30.16,30.14,10,10,9,20,6,24,0.00,0,,111
2013-5-4,71,56,41,47,41,35,89,60,31,30.18,30.16,30.14,10,10,10,20,6,24,0.00,0,,118
2013-5-5,69,51,33,46,37,24,93,57,20,30.18,30.15,30.11,10,8,0,17,5,22,0.00,1,Fog,125
2013-5-6,73,55,37,42,38,33,92,60,27,30.13,30.09,30.04,10,10,10,16,4,20,0.00,0,,109
2013-5-7,73,55,36,42,33,27,92,56,19,30.13,30.09,30.06,10,10,7,16,5,28,0.00,0,,105
2013-5-8,77,58,38,43,37,31,92,57,22,30.08,30.03,29.98,10,10,9,16,4,20,0.00,0,,131
2013-5-9,76,60,43,48,43,40,82,59,35,30.03,29.97,29.94,10,10,10,21,6,25,T,2,,28
2013-5-10,48,43,37,38,36,33,100,90,79,30.04,29.99,29.94,10,7,2,20,13,25,1.27,8,Rain,26
2013-5-11,56,45,34,45,35,30,92,71,50,29.92,29.77,29.64,10,8,2,20,7,31,0.38,6,Rain,279
2013-5-12,41,37,32,32,29,23,89,72,54,30.04,29.81,29.66,10,7,1,26,13,40,0.06,8,Rain-Snow,290
2013-5-13,53,42,31,28,24,19,85,57,28,30.12,30.09,30.04,10,10,10,21,8,26,0.00,3,,274
2013-5-14,56,47,37,40,37,29,89,70,51,30.08,29.91,29.74,10,10,10,22,9,29,0.06,4,Rain-Thunderstorm,138
2013-5-15,74,58,42,46,40,33,96,62,27,29.76,29.64,29.49,10,9,4,20,9,31,0.00,1,Thunderstorm,284
2013-5-16,67,56,44,40,38,33,71,51,31,30.09,29.90,29.74,10,10,10,21,10,28,0.00,0,,327
2013-5-17,62,49,35,40,37,34,92,66,39,30.25,30.20,30.10,10,10,10,17,6,21,0.00,2,,113
2013-5-18,60,50,40,42,40,38,89,68,47,30.26,30.19,30.09,10,10,10,10,4,14,0.00,6,,118
2013-5-19,73,61,49,50,47,42,89,67,44,30.08,29.99,29.91,10,10,6,13,5,16,0.00,3,,108
2013-5-20,61,55,49,56,53,46,100,89,78,29.95,29.86,29.76,5,2,0,22,7,32,0.66,6,Fog-Rain-Thunderstorm,96
2013-5-21,74,61,48,62,51,48,100,84,68,29.84,29.77,29.70,10,5,0,15,5,17,0.78,6,Fog-Rain-Thunderstorm,67
2013-5-22,60,55,50,57,52,48,100,97,93,29.73,29.71,29.68,10,4,0,13,5,16,0.33,8,Fog-Rain,26
2013-5-23,52,45,38,50,39,30,100,75,50,30.24,29.98,29.74,10,8,2,25,15,31,0.32,6,Rain,352
2013-5-24,57,47,36,36,29,25,79,57,35,30.39,30.34,30.26,10,10,10,22,9,26,0.00,3,,356
2013-5-25,60,47,34,37,31,22,92,57,22,30.45,30.38,30.32,10,10,10,15,5,26,0.00,0,,336
2013-5-26,65,50,35,37,32,25,89,56,23,30.39,30.33,30.25,10,10,10,12,3,16,0.00,0,,1
2013-5-27,68,51,34,40,33,26,92,57,22,30.29,30.20,30.08,10,10,10,18,6,23,0.00,0,,130
2013-5-28,53,50,47,52,48,35,100,80,59,30.06,29.91,29.80,10,4,1,17,6,23,0.29,8,Rain,120
2013-5-29,78,65,51,61,55,52,100,80,60,29.97,29.85,29.74,10,6,0,15,4,18,0.00,7,Fog,194
2013-5-30,89,69,49,67,57,49,100,71,41,30.00,29.96,29.91,10,6,0,18,7,24,0.11,4,Fog-Rain,151
2013-5-31,84,73,61,66,62,56,87,64,40,29.90,29.84,29.78,10,10,9,20,9,30,0.00,2,,210